createdAt,value
2022-10-16T00:02:22.190Z,86.20
2022-10-16T00:07:26.982Z,86.28
2022-10-16T00:12:30.186Z,85.92
2022-10-16T00:17:33.169Z,85.37
2022-10-16T00:22:37.474Z,85.31
2022-10-16T00:27:40.408Z,85.11
2022-10-16T00:32:43.291Z,85.97
2022-10-16T00:37:47.625Z,86.18
2022-10-16T00:42:50.546Z,86.00
2022-10-16T00:47:56.206Z,85.64
2022-10-16T00:53:02.643Z,85.97
2022-10-16T00:58:05.581Z,85.93
2022-10-16T01:03:28.709Z,86.02
2022-10-16T01:08:40.766Z,85.58
2022-10-16T01:13:48.136Z,85.80
2022-10-16T01:18:56.562Z,85.59
2022-10-16T01:24:08.720Z,86.15
2022-10-16T01:29:19.966Z,87.56
2022-10-16T01:34:27.439Z,86.61
2022-10-16T01:39:33.942Z,87.63
2022-10-16T01:44:40.851Z,87.57
2022-10-16T01:49:45.920Z,87.87
2022-10-16T01:54:52.224Z,88.51
2022-10-16T02:00:00.581Z,88.94
2022-10-16T02:05:10.575Z,89.31
2022-10-16T02:10:13.752Z,89.42
2022-10-16T02:15:18.208Z,89.73
2022-10-16T02:20:27.292Z,88.92
2022-10-16T02:25:33.884Z,89.42
2022-10-16T02:30:42.773Z,88.38
2022-10-16T02:35:48.623Z,87.83
2022-10-16T02:40:51.683Z,87.92
2022-10-16T02:45:55.949Z,88.86
2022-10-16T02:50:58.901Z,88.41
2022-10-16T02:56:01.798Z,88.00
2022-10-16T03:01:06.430Z,88.65
2022-10-16T03:06:09.433Z,89.26
2022-10-16T03:11:12.359Z,90.47
2022-10-16T03:16:16.626Z,90.12
2022-10-16T03:21:19.508Z,89.05
2022-10-16T03:26:22.402Z,88.34
2022-10-16T03:31:26.724Z,88.27
2022-10-16T03:36:29.729Z,87.96
2022-10-16T03:41:32.639Z,88.30
2022-10-16T03:46:36.914Z,88.56
2022-10-16T03:51:39.847Z,88.77
2022-10-16T03:56:42.753Z,88.58
2022-10-16T04:01:47.010Z,88.49
2022-10-16T04:06:49.927Z,88.73
2022-10-16T04:11:52.827Z,89.03
2022-10-16T04:16:57.068Z,88.66
2022-10-16T04:22:00.081Z,88.18
2022-10-16T04:27:03.061Z,88.99
2022-10-16T04:32:07.408Z,89.57
2022-10-16T04:37:10.343Z,89.43
2022-10-16T04:42:13.457Z,89.34
2022-10-16T04:47:17.732Z,89.13
2022-10-16T04:52:22.573Z,89.59
2022-10-16T04:57:25.872Z,89.57
2022-10-16T05:02:30.387Z,89.56
2022-10-16T05:07:33.279Z,90.59
2022-10-16T05:12:36.143Z,89.83
2022-10-16T05:17:42.619Z,89.14
2022-10-16T05:22:47.687Z,89.93
2022-10-16T05:27:51.570Z,89.46
2022-10-16T05:32:55.861Z,89.47
2022-10-16T05:37:58.736Z,89.04
2022-10-16T05:43:01.707Z,89.21
2022-10-16T05:48:06.653Z,89.70
2022-10-16T05:53:09.551Z,89.79
2022-10-16T05:58:12.444Z,89.05
2022-10-16T06:03:16.684Z,89.16
2022-10-16T06:08:19.742Z,88.13
2022-10-16T06:13:22.666Z,88.37
2022-10-16T06:18:27.076Z,88.09
2022-10-16T06:23:31.254Z,88.00
2022-10-16T06:28:34.260Z,86.81
2022-10-16T06:33:39.507Z,87.10
2022-10-16T06:38:43.131Z,86.28
2022-10-16T06:43:46.766Z,86.18
2022-10-16T06:48:51.146Z,85.59
2022-10-16T06:54:05.039Z,84.89
2022-10-16T06:59:08.121Z,84.19
2022-10-16T07:04:12.399Z,85.12
2022-10-16T07:09:15.491Z,86.60
2022-10-16T07:14:20.882Z,85.36
2022-10-16T07:19:28.370Z,83.24
2022-10-16T07:24:33.736Z,80.73
2022-10-16T07:29:36.732Z,80.92
2022-10-16T07:34:41.264Z,82.65
2022-10-16T07:39:44.245Z,83.67
2022-10-16T07:44:47.243Z,84.35
2022-10-16T07:49:51.547Z,84.74
2022-10-16T07:59:58.633Z,80.56
2022-10-16T08:05:03.023Z,81.20
2022-10-16T08:10:07.462Z,78.35
2022-10-16T08:15:11.796Z,76.76
2022-10-16T08:20:16.248Z,79.06
2022-10-16T08:25:19.724Z,81.39
2022-10-16T08:30:25.135Z,81.13
2022-10-16T08:35:29.821Z,79.97
2022-10-16T08:40:35.341Z,80.33
2022-10-16T08:45:52.309Z,78.82
2022-10-16T08:50:56.864Z,76.23
2022-10-16T08:56:00.382Z,74.01
2022-10-16T09:01:05.859Z,73.21
2022-10-16T09:06:19.680Z,72.86
2022-10-16T09:11:36.329Z,71.37
2022-10-16T09:16:44.534Z,69.33
2022-10-16T09:21:49.330Z,67.74
2022-10-16T09:26:53.452Z,67.66
2022-10-16T09:32:08.465Z,68.79
2022-10-16T09:37:17.439Z,69.01
2022-10-16T09:42:22.575Z,67.92
2022-10-16T09:47:28.095Z,67.60
2022-10-16T09:52:33.229Z,68.08
2022-10-16T09:57:36.537Z,66.64
2022-10-16T10:02:40.769Z,66.64
2022-10-16T10:07:47.579Z,66.72
2022-10-16T10:12:50.600Z,66.90
2022-10-16T10:17:55.856Z,66.49
2022-10-16T10:23:00.568Z,66.06
2022-10-16T10:28:20.342Z,64.95
2022-10-16T10:33:30.829Z,64.29
2022-10-16T10:38:44.948Z,63.96
2022-10-16T10:44:00.874Z,63.51
2022-10-16T10:49:19.655Z,61.16
2022-10-16T10:54:31.772Z,59.89
2022-10-16T10:59:55.874Z,61.04
2022-10-16T11:05:25.319Z,61.01
2022-10-16T11:10:34.084Z,59.91
2022-10-16T11:15:39.923Z,59.78
2022-10-16T11:20:49.371Z,60.62
2022-10-16T11:25:56.192Z,59.95
2022-10-16T11:31:04.563Z,59.43
2022-10-16T11:36:13.678Z,59.52
2022-10-16T11:41:26.720Z,59.51
2022-10-16T11:46:29.933Z,59.86
2022-10-16T11:51:40.621Z,58.41
2022-10-16T11:56:48.275Z,58.19
2022-10-16T12:01:56.143Z,59.67
2022-10-16T12:07:06.084Z,58.29
2022-10-16T12:12:31.403Z,58.05
2022-10-16T12:17:39.638Z,58.31
2022-10-16T12:22:49.633Z,58.71
2022-10-16T12:28:02.989Z,58.68
2022-10-16T12:33:08.734Z,58.81
2022-10-16T12:38:19.705Z,58.28
2022-10-16T12:43:39.441Z,57.76
2022-10-16T12:49:05.244Z,57.62
2022-10-16T12:54:16.210Z,57.21
2022-10-16T12:59:31.464Z,56.76
2022-10-16T13:05:00.918Z,56.23
2022-10-16T13:10:17.548Z,57.05
2022-10-16T13:15:37.348Z,58.39
2022-10-16T13:20:56.260Z,58.43
2022-10-16T13:26:14.301Z,58.84
2022-10-16T13:31:23.822Z,59.41
2022-10-16T13:36:28.618Z,58.54
2022-10-16T13:41:31.552Z,59.54
2022-10-16T13:46:36.046Z,61.38
2022-10-16T13:51:39.076Z,61.02
2022-10-16T13:56:42.489Z,61.03
2022-10-16T14:01:46.980Z,60.85
2022-10-16T14:06:52.181Z,60.23
2022-10-16T14:11:58.864Z,61.47
2022-10-16T14:17:05.609Z,60.92
2022-10-16T14:22:32.063Z,61.02
2022-10-16T14:27:37.695Z,60.59
2022-10-16T14:32:43.258Z,61.25
2022-10-16T14:37:46.889Z,61.11
2022-10-16T14:42:50.074Z,62.93
2022-10-16T14:47:56.963Z,63.97
2022-10-16T14:53:00.946Z,64.72
2022-10-16T14:58:04.100Z,65.22
2022-10-16T15:03:08.434Z,65.77
2022-10-16T15:08:11.375Z,65.78
2022-10-16T15:13:15.126Z,66.77
2022-10-16T15:18:21.439Z,67.13
2022-10-16T15:28:32.752Z,66.81
2022-10-16T15:33:39.859Z,67.57
2022-10-16T15:38:43.198Z,68.38
2022-10-16T15:43:46.415Z,68.96
2022-10-16T15:48:53.076Z,69.24
2022-10-16T15:53:56.045Z,69.38
2022-10-16T15:58:59.355Z,69.51
2022-10-16T16:04:10.986Z,69.97
2022-10-16T16:09:18.519Z,69.91
2022-10-16T16:14:21.775Z,70.17
2022-10-16T16:19:26.141Z,71.17
2022-10-16T16:24:29.075Z,71.22
2022-10-16T16:29:32.151Z,72.28
2022-10-16T16:34:36.518Z,71.80
2022-10-16T16:39:39.527Z,72.02
2022-10-16T16:44:42.794Z,72.61
2022-10-16T16:49:47.693Z,73.11
2022-10-16T16:54:52.966Z,74.19
2022-10-16T16:59:56.129Z,73.46
2022-10-16T17:05:00.397Z,73.97
2022-10-16T17:10:03.513Z,74.53
2022-10-16T17:15:07.166Z,74.42
2022-10-16T17:20:12.135Z,76.05
2022-10-16T17:25:15.159Z,76.61
2022-10-16T17:30:18.436Z,75.86
2022-10-16T17:35:23.157Z,76.24
2022-10-16T17:40:27.116Z,77.95
2022-10-16T17:45:30.136Z,78.15
2022-10-16T17:50:34.525Z,77.06
2022-10-16T17:55:40.026Z,77.59
2022-10-16T18:00:42.952Z,77.92
2022-10-16T18:05:47.255Z,77.81
2022-10-16T18:10:51.298Z,77.93
2022-10-16T18:16:01.281Z,77.89
2022-10-16T18:21:07.394Z,77.76
2022-10-16T18:26:11.789Z,78.26
2022-10-16T18:31:17.028Z,78.84
2022-10-16T18:36:23.781Z,78.42
2022-10-16T18:41:28.186Z,79.11
2022-10-16T18:46:31.179Z,78.68
2022-10-16T18:51:37.792Z,78.70
2022-10-16T18:56:41.452Z,79.60
2022-10-16T19:01:44.521Z,80.48
2022-10-16T19:06:50.979Z,81.01
2022-10-16T19:11:54.438Z,79.85
2022-10-16T19:16:57.403Z,81.26
2022-10-16T19:22:14.220Z,80.75
2022-10-16T19:27:17.172Z,80.65
2022-10-16T19:32:20.103Z,80.59
2022-10-16T19:37:25.929Z,81.21
2022-10-16T19:42:29.147Z,81.68
2022-10-16T19:47:32.822Z,81.58
2022-10-16T19:52:38.280Z,81.20
2022-10-16T19:57:41.225Z,80.92
2022-10-16T20:02:44.301Z,80.95
2022-10-16T20:07:48.558Z,81.54
2022-10-16T20:12:51.466Z,81.63
2022-10-16T20:17:54.407Z,82.18
2022-10-16T20:22:58.692Z,82.67
2022-10-16T20:28:01.623Z,83.07
2022-10-16T20:33:04.803Z,82.93
2022-10-16T20:38:09.121Z,82.70
2022-10-16T20:43:13.998Z,83.25
2022-10-16T20:48:16.876Z,83.69
2022-10-16T20:53:21.206Z,83.40
2022-10-16T20:58:24.176Z,82.97
2022-10-16T21:03:27.178Z,82.47
2022-10-16T21:08:31.780Z,82.21
2022-10-16T21:13:34.678Z,82.83
2022-10-16T21:18:43.320Z,83.23
2022-10-16T21:23:48.951Z,82.65
2022-10-16T21:28:51.888Z,82.63
2022-10-16T21:33:55.345Z,82.33
2022-10-16T21:39:03.744Z,83.00
2022-10-16T21:44:07.909Z,83.68
2022-10-16T21:49:13.555Z,83.13
2022-10-16T21:54:19.921Z,82.57
2022-10-16T21:59:22.869Z,83.93
2022-10-16T22:04:25.815Z,83.94
2022-10-16T22:09:30.246Z,83.85
2022-10-16T22:14:33.173Z,83.73
2022-10-16T22:19:36.038Z,84.05
2022-10-16T22:24:40.278Z,83.69
2022-10-16T22:29:43.171Z,83.71
2022-10-16T22:34:46.283Z,83.80
2022-10-16T22:39:50.647Z,84.02
2022-10-16T22:44:53.572Z,83.97
2022-10-16T22:49:56.482Z,83.61
2022-10-16T22:55:00.756Z,84.72
2022-10-16T23:00:04.461Z,86.04
2022-10-16T23:05:08.539Z,85.26
2022-10-16T23:10:13.108Z,85.21
2022-10-16T23:15:16.165Z,85.16
2022-10-16T23:20:19.049Z,85.41
2022-10-16T23:25:23.339Z,84.68
2022-10-16T23:30:26.216Z,85.16
2022-10-16T23:35:29.104Z,84.53
2022-10-16T23:40:33.496Z,85.23
2022-10-16T23:45:36.645Z,84.47
2022-10-16T23:50:39.585Z,84.22
2022-10-16T23:55:44.448Z,85.39
